sensor_id;sensor_type;location;lat;lon;timestamp;P1;durP1;ratioP1;P2;durP2;ratioP2
47599;SDS011;33323;52.124;6.018;2024-01-06T00:00:39;14.70;;;7.05;;
47599;SDS011;33323;52.124;6.018;2024-01-06T00:03:07;14.45;;;6.95;;
47599;SDS011;33323;52.124;6.018;2024-01-06T00:05:35;14.60;;;7.03;;
47599;SDS011;33323;52.124;6.018;2024-01-06T00:08:02;15.98;;;7.22;;
47599;SDS011;33323;52.124;6.018;2024-01-06T00:10:31;16.73;;;7.20;;
47599;SDS011;33323;52.124;6.018;2024-01-06T00:12:58;16.42;;;7.68;;
47599;SDS011;33323;52.124;6.018;2024-01-06T00:15:26;15.40;;;7.32;;
47599;SDS011;33323;52.124;6.018;2024-01-06T00:17:53;15.70;;;7.22;;
47599;SDS011;33323;52.124;6.018;2024-01-06T00:20:26;13.80;;;6.47;;
47599;SDS011;33323;52.124;6.018;2024-01-06T00:22:55;15.60;;;8.02;;
47599;SDS011;33323;52.124;6.018;2024-01-06T00:25:26;17.70;;;7.60;;
47599;SDS011;33323;52.124;6.018;2024-01-06T00:27:56;13.73;;;7.32;;
47599;SDS011;33323;52.124;6.018;2024-01-06T00:30:23;16.90;;;8.43;;
47599;SDS011;33323;52.124;6.018;2024-01-06T00:32:51;16.38;;;8.30;;
47599;SDS011;33323;52.124;6.018;2024-01-06T00:35:18;15.13;;;7.40;;
47599;SDS011;33323;52.124;6.018;2024-01-06T00:37:46;14.80;;;8.10;;
47599;SDS011;33323;52.124;6.018;2024-01-06T00:40:19;14.80;;;8.23;;
47599;SDS011;33323;52.124;6.018;2024-01-06T00:42:47;16.15;;;8.20;;
47599;SDS011;33323;52.124;6.018;2024-01-06T00:45:15;22.05;;;9.05;;
47599;SDS011;33323;52.124;6.018;2024-01-06T00:47:51;16.50;;;8.60;;
47599;SDS011;33323;52.124;6.018;2024-01-06T00:50:23;16.42;;;9.00;;
47599;SDS011;33323;52.124;6.018;2024-01-06T00:52:54;17.75;;;9.15;;
47599;SDS011;33323;52.124;6.018;2024-01-06T00:55:28;16.13;;;9.15;;
47599;SDS011;33323;52.124;6.018;2024-01-06T00:58:03;16.85;;;9.20;;
47599;SDS011;33323;52.124;6.018;2024-01-06T01:00:30;14.82;;;7.70;;
47599;SDS011;33323;52.124;6.018;2024-01-06T01:02:58;17.20;;;8.27;;
47599;SDS011;33323;52.124;6.018;2024-01-06T01:05:25;16.73;;;8.55;;
47599;SDS011;33323;52.124;6.018;2024-01-06T01:07:53;17.15;;;9.70;;
47599;SDS011;33323;52.124;6.018;2024-01-06T01:10:23;18.55;;;9.95;;
47599;SDS011;33323;52.124;6.018;2024-01-06T01:12:51;19.13;;;10.25;;
47599;SDS011;33323;52.124;6.018;2024-01-06T01:15:22;17.65;;;9.27;;
47599;SDS011;33323;52.124;6.018;2024-01-06T01:18:01;16.10;;;8.68;;
47599;SDS011;33323;52.124;6.018;2024-01-06T01:20:29;17.17;;;9.13;;
47599;SDS011;33323;52.124;6.018;2024-01-06T01:22:57;17.20;;;8.63;;
47599;SDS011;33323;52.124;6.018;2024-01-06T01:25:24;17.58;;;8.18;;
47599;SDS011;33323;52.124;6.018;2024-01-06T01:27:53;16.50;;;9.10;;
47599;SDS011;33323;52.124;6.018;2024-01-06T01:30:23;17.25;;;9.00;;
47599;SDS011;33323;52.124;6.018;2024-01-06T01:43:34;19.92;;;10.18;;
47599;SDS011;33323;52.124;6.018;2024-01-06T01:46:05;21.73;;;11.35;;
47599;SDS011;33323;52.124;6.018;2024-01-06T01:48:49;24.25;;;13.20;;
47599;SDS011;33323;52.124;6.018;2024-01-06T01:51:18;24.45;;;12.48;;
47599;SDS011;33323;52.124;6.018;2024-01-06T01:53:50;23.73;;;12.45;;
47599;SDS011;33323;52.124;6.018;2024-01-06T01:56:19;22.83;;;11.93;;
47599;SDS011;33323;52.124;6.018;2024-01-06T01:58:47;26.30;;;13.07;;
47599;SDS011;33323;52.124;6.018;2024-01-06T02:01:16;24.38;;;12.15;;
47599;SDS011;33323;52.124;6.018;2024-01-06T02:04:07;26.40;;;12.68;;
47599;SDS011;33323;52.124;6.018;2024-01-06T02:06:37;26.90;;;12.02;;
47599;SDS011;33323;52.124;6.018;2024-01-06T02:09:08;29.85;;;14.38;;
47599;SDS011;33323;52.124;6.018;2024-01-06T02:11:41;23.98;;;12.27;;
47599;SDS011;33323;52.124;6.018;2024-01-06T02:14:09;29.35;;;14.43;;
47599;SDS011;33323;52.124;6.018;2024-01-06T02:16:37;28.20;;;13.52;;
47599;SDS011;33323;52.124;6.018;2024-01-06T02:19:08;31.05;;;14.32;;
47599;SDS011;33323;52.124;6.018;2024-01-06T02:21:43;28.63;;;13.98;;
47599;SDS011;33323;52.124;6.018;2024-01-06T02:24:18;29.98;;;14.27;;
47599;SDS011;33323;52.124;6.018;2024-01-06T02:26:50;33.13;;;13.93;;
47599;SDS011;33323;52.124;6.018;2024-01-06T02:29:18;28.13;;;13.75;;
47599;SDS011;33323;52.124;6.018;2024-01-06T02:31:45;32.65;;;14.52;;
47599;SDS011;33323;52.124;6.018;2024-01-06T02:34:13;33.88;;;14.55;;
47599;SDS011;33323;52.124;6.018;2024-01-06T02:36:41;31.50;;;13.15;;
47599;SDS011;33323;52.124;6.018;2024-01-06T02:39:08;32.00;;;14.70;;
47599;SDS011;33323;52.124;6.018;2024-01-06T02:41:36;27.27;;;13.80;;
47599;SDS011;33323;52.124;6.018;2024-01-06T02:44:07;29.35;;;13.77;;
47599;SDS011;33323;52.124;6.018;2024-01-06T02:46:39;28.25;;;12.60;;
47599;SDS011;33323;52.124;6.018;2024-01-06T02:49:37;23.75;;;11.10;;
47599;SDS011;33323;52.124;6.018;2024-01-06T02:52:08;22.08;;;10.45;;
47599;SDS011;33323;52.124;6.018;2024-01-06T02:54:36;20.52;;;9.98;;
47599;SDS011;33323;52.124;6.018;2024-01-06T02:57:05;22.45;;;11.63;;
47599;SDS011;33323;52.124;6.018;2024-01-06T02:59:36;21.38;;;10.00;;
47599;SDS011;33323;52.124;6.018;2024-01-06T03:02:04;21.27;;;10.23;;
47599;SDS011;33323;52.124;6.018;2024-01-06T03:04:33;21.40;;;10.43;;
47599;SDS011;33323;52.124;6.018;2024-01-06T03:07:08;17.08;;;9.23;;
47599;SDS011;33323;52.124;6.018;2024-01-06T03:09:37;19.65;;;9.82;;
47599;SDS011;33323;52.124;6.018;2024-01-06T03:12:11;18.38;;;9.40;;
47599;SDS011;33323;52.124;6.018;2024-01-06T03:14:39;21.27;;;9.57;;
47599;SDS011;33323;52.124;6.018;2024-01-06T03:17:12;24.13;;;10.27;;
47599;SDS011;33323;52.124;6.018;2024-01-06T03:19:44;19.45;;;9.82;;
47599;SDS011;33323;52.124;6.018;2024-01-06T03:22:12;23.17;;;10.85;;
47599;SDS011;33323;52.124;6.018;2024-01-06T03:24:51;24.27;;;10.40;;
47599;SDS011;33323;52.124;6.018;2024-01-06T03:27:21;25.02;;;12.18;;
47599;SDS011;33323;52.124;6.018;2024-01-06T03:29:51;25.48;;;12.70;;
47599;SDS011;33323;52.124;6.018;2024-01-06T03:32:19;26.05;;;12.05;;
47599;SDS011;33323;52.124;6.018;2024-01-06T03:34:47;30.35;;;14.05;;
47599;SDS011;33323;52.124;6.018;2024-01-06T03:37:15;29.02;;;13.60;;
47599;SDS011;33323;52.124;6.018;2024-01-06T03:39:45;27.67;;;13.13;;
47599;SDS011;33323;52.124;6.018;2024-01-06T03:42:17;30.77;;;13.40;;
47599;SDS011;33323;52.124;6.018;2024-01-06T03:44:48;28.13;;;13.93;;
47599;SDS011;33323;52.124;6.018;2024-01-06T03:47:21;30.42;;;12.80;;
47599;SDS011;33323;52.124;6.018;2024-01-06T03:49:49;29.75;;;15.18;;
47599;SDS011;33323;52.124;6.018;2024-01-06T03:52:19;30.67;;;14.07;;
47599;SDS011;33323;52.124;6.018;2024-01-06T03:54:55;31.02;;;14.13;;
47599;SDS011;33323;52.124;6.018;2024-01-06T03:57:28;33.70;;;13.85;;
47599;SDS011;33323;52.124;6.018;2024-01-06T04:00:00;35.85;;;15.43;;
47599;SDS011;33323;52.124;6.018;2024-01-06T04:02:36;32.95;;;14.80;;
47599;SDS011;33323;52.124;6.018;2024-01-06T04:05:07;36.25;;;16.58;;
47599;SDS011;33323;52.124;6.018;2024-01-06T04:07:35;40.28;;;16.27;;
47599;SDS011;33323;52.124;6.018;2024-01-06T04:10:08;38.95;;;15.02;;
47599;SDS011;33323;52.124;6.018;2024-01-06T04:12:37;34.25;;;14.52;;
47599;SDS011;33323;52.124;6.018;2024-01-06T04:15:12;33.47;;;16.35;;
47599;SDS011;33323;52.124;6.018;2024-01-06T04:17:49;41.60;;;16.65;;
47599;SDS011;33323;52.124;6.018;2024-01-06T04:20:20;39.60;;;14.80;;
47599;SDS011;33323;52.124;6.018;2024-01-06T04:22:51;42.08;;;17.17;;
47599;SDS011;33323;52.124;6.018;2024-01-06T04:25:23;38.30;;;16.42;;
47599;SDS011;33323;52.124;6.018;2024-01-06T04:27:51;37.80;;;16.48;;
47599;SDS011;33323;52.124;6.018;2024-01-06T04:30:25;33.90;;;17.02;;
47599;SDS011;33323;52.124;6.018;2024-01-06T04:32:59;32.67;;;15.65;;
47599;SDS011;33323;52.124;6.018;2024-01-06T04:35:34;39.20;;;17.02;;
47599;SDS011;33323;52.124;6.018;2024-01-06T04:38:11;36.60;;;16.33;;
47599;SDS011;33323;52.124;6.018;2024-01-06T04:40:44;29.38;;;14.30;;
47599;SDS011;33323;52.124;6.018;2024-01-06T04:43:15;31.73;;;15.93;;
47599;SDS011;33323;52.124;6.018;2024-01-06T04:45:51;31.75;;;15.60;;
47599;SDS011;33323;52.124;6.018;2024-01-06T04:48:20;36.63;;;15.27;;
47599;SDS011;33323;52.124;6.018;2024-01-06T04:50:53;36.85;;;15.70;;
47599;SDS011;33323;52.124;6.018;2024-01-06T04:53:30;35.97;;;16.10;;
47599;SDS011;33323;52.124;6.018;2024-01-06T04:56:01;29.55;;;14.77;;
47599;SDS011;33323;52.124;6.018;2024-01-06T04:58:35;35.20;;;16.38;;
47599;SDS011;33323;52.124;6.018;2024-01-06T05:01:09;36.65;;;16.13;;
47599;SDS011;33323;52.124;6.018;2024-01-06T05:03:45;30.50;;;13.82;;
47599;SDS011;33323;52.124;6.018;2024-01-06T05:06:16;30.90;;;15.65;;
47599;SDS011;33323;52.124;6.018;2024-01-06T05:08:44;32.17;;;14.88;;
47599;SDS011;33323;52.124;6.018;2024-01-06T05:13:55;40.00;;;16.08;;
47599;SDS011;33323;52.124;6.018;2024-01-06T05:16:27;36.40;;;16.10;;
47599;SDS011;33323;52.124;6.018;2024-01-06T05:18:55;33.53;;;15.95;;
47599;SDS011;33323;52.124;6.018;2024-01-06T05:21:23;36.03;;;15.65;;
47599;SDS011;33323;52.124;6.018;2024-01-06T05:23:51;35.58;;;15.73;;
47599;SDS011;33323;52.124;6.018;2024-01-06T05:26:22;32.47;;;15.30;;
47599;SDS011;33323;52.124;6.018;2024-01-06T05:28:50;35.22;;;16.30;;
47599;SDS011;33323;52.124;6.018;2024-01-06T05:31:18;35.72;;;13.43;;
47599;SDS011;33323;52.124;6.018;2024-01-06T05:33:46;38.78;;;15.60;;
47599;SDS011;33323;52.124;6.018;2024-01-06T05:36:18;32.78;;;14.73;;
47599;SDS011;33323;52.124;6.018;2024-01-06T05:38:51;30.38;;;14.90;;
47599;SDS011;33323;52.124;6.018;2024-01-06T05:41:19;37.60;;;15.50;;
47599;SDS011;33323;52.124;6.018;2024-01-06T05:44:28;33.65;;;14.52;;
47599;SDS011;33323;52.124;6.018;2024-01-06T05:46:57;35.35;;;13.73;;
47599;SDS011;33323;52.124;6.018;2024-01-06T05:49:25;31.48;;;13.65;;
47599;SDS011;33323;52.124;6.018;2024-01-06T05:52:01;33.90;;;14.70;;
47599;SDS011;33323;52.124;6.018;2024-01-06T05:54:34;36.13;;;15.90;;
47599;SDS011;33323;52.124;6.018;2024-01-06T05:57:13;32.92;;;13.90;;
47599;SDS011;33323;52.124;6.018;2024-01-06T05:59:46;32.85;;;14.60;;
47599;SDS011;33323;52.124;6.018;2024-01-06T06:02:19;37.17;;;14.75;;
47599;SDS011;33323;52.124;6.018;2024-01-06T06:04:51;31.58;;;14.20;;
47599;SDS011;33323;52.124;6.018;2024-01-06T06:07:19;30.98;;;13.52;;
47599;SDS011;33323;52.124;6.018;2024-01-06T06:09:47;27.65;;;14.02;;
47599;SDS011;33323;52.124;6.018;2024-01-06T06:12:15;33.00;;;12.52;;
47599;SDS011;33323;52.124;6.018;2024-01-06T06:14:43;33.28;;;13.98;;
47599;SDS011;33323;52.124;6.018;2024-01-06T06:17:12;37.55;;;15.15;;
47599;SDS011;33323;52.124;6.018;2024-01-06T06:19:39;30.17;;;13.23;;
47599;SDS011;33323;52.124;6.018;2024-01-06T06:25:44;27.25;;;12.38;;
47599;SDS011;33323;52.124;6.018;2024-01-06T06:28:17;29.02;;;13.40;;
47599;SDS011;33323;52.124;6.018;2024-01-06T06:30:53;32.13;;;14.52;;
47599;SDS011;33323;52.124;6.018;2024-01-06T06:36:48;34.35;;;14.73;;
47599;SDS011;33323;52.124;6.018;2024-01-06T06:39:16;27.13;;;11.48;;
47599;SDS011;33323;52.124;6.018;2024-01-06T06:44:38;28.20;;;13.68;;
47599;SDS011;33323;52.124;6.018;2024-01-06T06:52:51;29.45;;;13.23;;
47599;SDS011;33323;52.124;6.018;2024-01-06T06:55:26;28.10;;;13.45;;
47599;SDS011;33323;52.124;6.018;2024-01-06T06:58:00;31.20;;;14.32;;
47599;SDS011;33323;52.124;6.018;2024-01-06T07:00:51;26.00;;;12.65;;
47599;SDS011;33323;52.124;6.018;2024-01-06T07:03:22;24.67;;;12.25;;
47599;SDS011;33323;52.124;6.018;2024-01-06T07:05:54;26.67;;;12.65;;
47599;SDS011;33323;52.124;6.018;2024-01-06T07:14:40;27.90;;;13.00;;
47599;SDS011;33323;52.124;6.018;2024-01-06T07:20:24;28.67;;;13.13;;
47599;SDS011;33323;52.124;6.018;2024-01-06T07:22:52;27.08;;;13.40;;
47599;SDS011;33323;52.124;6.018;2024-01-06T07:28:26;35.15;;;14.50;;
47599;SDS011;33323;52.124;6.018;2024-01-06T07:31:07;29.52;;;13.15;;
47599;SDS011;33323;52.124;6.018;2024-01-06T07:33:40;35.60;;;14.63;;
47599;SDS011;33323;52.124;6.018;2024-01-06T07:36:08;35.88;;;14.98;;
47599;SDS011;33323;52.124;6.018;2024-01-06T07:49:52;27.55;;;13.63;;
47599;SDS011;33323;52.124;6.018;2024-01-06T07:52:24;27.85;;;13.57;;
47599;SDS011;33323;52.124;6.018;2024-01-06T07:55:02;24.10;;;12.02;;
47599;SDS011;33323;52.124;6.018;2024-01-06T07:57:45;33.65;;;14.05;;
47599;SDS011;33323;52.124;6.018;2024-01-06T08:00:18;30.88;;;12.93;;
47599;SDS011;33323;52.124;6.018;2024-01-06T08:02:49;26.90;;;13.07;;
47599;SDS011;33323;52.124;6.018;2024-01-06T08:05:19;35.50;;;14.43;;
47599;SDS011;33323;52.124;6.018;2024-01-06T08:07:53;25.10;;;12.35;;
47599;SDS011;33323;52.124;6.018;2024-01-06T08:10:28;29.25;;;13.88;;
47599;SDS011;33323;52.124;6.018;2024-01-06T08:48:10;31.65;;;14.93;;
47599;SDS011;33323;52.124;6.018;2024-01-06T09:06:38;24.27;;;11.40;;
47599;SDS011;33323;52.124;6.018;2024-01-06T09:20:57;24.00;;;12.50;;
47599;SDS011;33323;52.124;6.018;2024-01-06T09:29:41;23.55;;;10.98;;
47599;SDS011;33323;52.124;6.018;2024-01-06T10:25:05;27.85;;;13.40;;
47599;SDS011;33323;52.124;6.018;2024-01-06T10:43:30;22.65;;;11.05;;
47599;SDS011;33323;52.124;6.018;2024-01-06T10:46:34;23.48;;;11.75;;
47599;SDS011;33323;52.124;6.018;2024-01-06T11:01:44;23.60;;;12.07;;
47599;SDS011;33323;52.124;6.018;2024-01-06T12:44:16;25.85;;;13.00;;
47599;SDS011;33323;52.124;6.018;2024-01-06T13:34:35;30.05;;;15.30;;
47599;SDS011;33323;52.124;6.018;2024-01-06T14:05:35;27.38;;;14.68;;
47599;SDS011;33323;52.124;6.018;2024-01-06T14:08:04;26.92;;;15.32;;
47599;SDS011;33323;52.124;6.018;2024-01-06T14:10:32;27.23;;;14.60;;
47599;SDS011;33323;52.124;6.018;2024-01-06T14:12:58;31.05;;;17.13;;
47599;SDS011;33323;52.124;6.018;2024-01-06T14:15:27;30.33;;;15.57;;
47599;SDS011;33323;52.124;6.018;2024-01-06T14:17:57;23.50;;;13.70;;
47599;SDS011;33323;52.124;6.018;2024-01-06T14:20:29;26.33;;;14.35;;
47599;SDS011;33323;52.124;6.018;2024-01-06T21:00:03;23.08;;;12.80;;
47599;SDS011;33323;52.124;6.018;2024-01-06T21:05:46;27.77;;;14.70;;
47599;SDS011;33323;52.124;6.018;2024-01-06T21:43:29;29.55;;;15.48;;
47599;SDS011;33323;52.124;6.018;2024-01-06T21:45:57;27.50;;;14.77;;
47599;SDS011;33323;52.124;6.018;2024-01-06T23:10:05;40.72;;;19.60;;
47599;SDS011;33323;52.124;6.018;2024-01-06T23:15:49;41.70;;;19.02;;
47599;SDS011;33323;52.124;6.018;2024-01-06T23:38:02;44.95;;;19.98;;
47599;SDS011;33323;52.124;6.018;2024-01-06T23:40:33;51.63;;;22.50;;
47599;SDS011;33323;52.124;6.018;2024-01-06T23:43:06;59.97;;;24.38;;
47599;SDS011;33323;52.124;6.018;2024-01-06T23:45:41;54.10;;;23.88;;
47599;SDS011;33323;52.124;6.018;2024-01-06T23:57:00;64.82;;;27.73;;
47599;SDS011;33323;52.124;6.018;2024-01-06T23:59:30;66.60;;;26.02;;
